Pittsfield, IL (62363)

5:30 PM CDT on August 04, 2015 (GMT -0500)
Pittsfield Penstone Municipal | | Change Station
CLOSE
Current Station
Airport
Location: Pittsfield,
Elevation: 709 ft
Nearby Weather Stations
Active Advisory: Flood Warning

Elev 709 ft 39.64 °N, 90.78 °W | Updated 15 minutes ago

Clear
Clear
78 °F
Feels Like 78 °F
N
5
Wind Variable Wind from ENE

Today
High -- | Low -- °F
--% Chance of Precip.
Yesterday
High -- | Low -- °F
Precip. -- in
6:05 AM 8:12 PM
Waning Gibbous, 74% visible
Pressure 29.99 in
Visibility 10.0 miles
Clouds Clear
Dew Point 65 °F
Humidity 65%
Rainfall 0.04 in
Snow Depth Not available.
UV 4 out of 12
Pollen 6.00 out of 12
Air Quality Not available.
Flu Activity Not available.
METAR KPPQ 042215Z AUTO 06004KT 10SM CLR 26/19 A2999 RMK AO2 T02550185

More Conditions Fewer Conditions

Pressure 29.99 in
Visibility 10.0 miles
Clouds Clear
Dew Point 65 °F
Humidity 65%
Rainfall 0.04 in
Snow Depth Not available.
UV 4 out of 12
Pollen 6.00 out of 12
Air Quality Not available.
Flu Activity Not available.
METAR KPPQ 042215Z AUTO 06004KT 10SM CLR 26/19 A2999 RMK AO2 T02550185

More Conditions Fewer Conditions

10-Day Weather Forecast

×

Almanac

Astronomy

Aug. 04, 2015 Rise Set
Actual Time
Civil Twilight
Nautical Twilight
Astronomical Twilight
Moon
Length of Visible Light
Length of Day
Tomorrow will be .
, % of the Moon is Illuminated

Today's Extremes

State Highs State Lows

Community

WunderPhotos

Upload Photos

1,844,007 photos uploaded!

WunderBlogs® & News

Nearby

Air Quality

  Air Quality AQ Index Pollutant
Not available.

Snow Depth

Station Depth Elevation

Earthquake Activity

City Distance Mag. Time & Date
Minimum magnitude displayed is 2.5.

Coastal Water Temperatures

Place Temperature

Stations

Nearby Weather Stations

Station Location Temp. Windchill Dew Point Humidity Wind Precip. Elev Updated Type
                   
Flood Warning
Statement as of 11:04 AM CDT on August 04, 2015

The Flood Warning continues for
the Illinois River at Valley City
* at 10:00 am Tuesday the stage was 14.9 feet.
* Flood stage is 14.0 feet.
* Minor flooding is occurring and minor flooding is forecast.
* The river is forecast to fall below flood stage by tomorrow evening.

                   Fld latest 7 a.M. Forecast
location stg obs stg 08/05 08/06 08/07 08/08 08/09

Illinois River
Valley City 14.0 14.89 14.3 13.6 13.0 12.4 11.8




Lat... Lon 3977 9067 3977 9053 3952 9052 3952 9064